sensor_id;sensor_type;location;lat;lon;timestamp;temperature;humidity
5118;DHT22;2578;51.622;7.046;2023-04-03T00:01:03;-0.60;99.90
5118;DHT22;2578;51.622;7.046;2023-04-03T00:03:29;-0.80;99.90
5118;DHT22;2578;51.622;7.046;2023-04-03T00:05:54;-0.80;99.90
5118;DHT22;2578;51.622;7.046;2023-04-03T00:08:20;-0.80;99.90
5118;DHT22;2578;51.622;7.046;2023-04-03T00:10:46;-0.70;99.90
5118;DHT22;2578;51.622;7.046;2023-04-03T00:13:12;-0.70;99.90
5118;DHT22;2578;51.622;7.046;2023-04-03T00:15:39;-0.60;99.90
5118;DHT22;2578;51.622;7.046;2023-04-03T00:18:06;-0.60;99.90
5118;DHT22;2578;51.622;7.046;2023-04-03T00:20:32;-0.50;99.90
5118;DHT22;2578;51.622;7.046;2023-04-03T00:22:58;-0.30;99.90
5118;DHT22;2578;51.622;7.046;2023-04-03T00:25:24;-0.20;99.90
5118;DHT22;2578;51.622;7.046;2023-04-03T00:27:50;0.00;99.90
5118;DHT22;2578;51.622;7.046;2023-04-03T00:30:17;0.10;99.90
5118;DHT22;2578;51.622;7.046;2023-04-03T00:32:43;0.30;99.90
5118;DHT22;2578;51.622;7.046;2023-04-03T00:35:10;0.50;99.90
5118;DHT22;2578;51.622;7.046;2023-04-03T00:37:36;0.70;99.90
5118;DHT22;2578;51.622;7.046;2023-04-03T00:40:02;0.90;99.90
5118;DHT22;2578;51.622;7.046;2023-04-03T00:42:28;1.00;99.90
5118;DHT22;2578;51.622;7.046;2023-04-03T00:47:22;1.00;99.90
5118;DHT22;2578;51.622;7.046;2023-04-03T00:49:49;1.10;99.90
5118;DHT22;2578;51.622;7.046;2023-04-03T00:52:17;1.20;99.90
5118;DHT22;2578;51.622;7.046;2023-04-03T00:54:46;1.20;99.90
5118;DHT22;2578;51.622;7.046;2023-04-03T00:57:13;1.20;99.90
5118;DHT22;2578;51.622;7.046;2023-04-03T00:59:43;1.30;99.90
5118;DHT22;2578;51.622;7.046;2023-04-03T01:02:10;1.30;99.90
5118;DHT22;2578;51.622;7.046;2023-04-03T01:04:41;1.30;99.90
5118;DHT22;2578;51.622;7.046;2023-04-03T01:07:15;1.30;99.90
5118;DHT22;2578;51.622;7.046;2023-04-03T01:09:42;1.40;99.90
5118;DHT22;2578;51.622;7.046;2023-04-03T01:12:21;1.50;99.90
5118;DHT22;2578;51.622;7.046;2023-04-03T01:14:50;1.50;99.90
5118;DHT22;2578;51.622;7.046;2023-04-03T01:25:37;1.60;99.90
5118;DHT22;2578;51.622;7.046;2023-04-03T01:28:04;1.50;99.90
5118;DHT22;2578;51.622;7.046;2023-04-03T01:30:33;1.50;99.90
5118;DHT22;2578;51.622;7.046;2023-04-03T01:33:00;1.50;99.90
5118;DHT22;2578;51.622;7.046;2023-04-03T01:35:25;1.50;99.90
5118;DHT22;2578;51.622;7.046;2023-04-03T01:37:51;1.60;99.90
5118;DHT22;2578;51.622;7.046;2023-04-03T01:40:16;1.60;99.90
5118;DHT22;2578;51.622;7.046;2023-04-03T01:42:42;1.60;99.90
5118;DHT22;2578;51.622;7.046;2023-04-03T01:45:08;1.60;99.90
5118;DHT22;2578;51.622;7.046;2023-04-03T01:47:34;1.50;99.90
5118;DHT22;2578;51.622;7.046;2023-04-03T01:50:00;1.50;99.90
5118;DHT22;2578;51.622;7.046;2023-04-03T01:52:25;1.50;99.90
5118;DHT22;2578;51.622;7.046;2023-04-03T01:54:51;1.50;99.90
5118;DHT22;2578;51.622;7.046;2023-04-03T01:57:17;1.50;99.90
5118;DHT22;2578;51.622;7.046;2023-04-03T01:59:42;1.50;99.90
5118;DHT22;2578;51.622;7.046;2023-04-03T02:02:08;1.40;99.90
5118;DHT22;2578;51.622;7.046;2023-04-03T02:04:34;1.40;99.90
5118;DHT22;2578;51.622;7.046;2023-04-03T02:06:59;1.40;99.90
5118;DHT22;2578;51.622;7.046;2023-04-03T02:09:25;1.40;99.90
5118;DHT22;2578;51.622;7.046;2023-04-03T02:11:52;1.40;99.90
5118;DHT22;2578;51.622;7.046;2023-04-03T02:16:44;1.30;99.90
5118;DHT22;2578;51.622;7.046;2023-04-03T02:19:09;1.30;99.90
5118;DHT22;2578;51.622;7.046;2023-04-03T02:21:35;1.30;99.90
5118;DHT22;2578;51.622;7.046;2023-04-03T02:24:01;1.20;99.90
5118;DHT22;2578;51.622;7.046;2023-04-03T02:26:26;1.20;99.90
5118;DHT22;2578;51.622;7.046;2023-04-03T02:28:52;1.30;99.90
5118;DHT22;2578;51.622;7.046;2023-04-03T02:31:18;1.20;99.90
5118;DHT22;2578;51.622;7.046;2023-04-03T02:33:43;1.20;99.90
5118;DHT22;2578;51.622;7.046;2023-04-03T02:36:09;1.10;99.90
5118;DHT22;2578;51.622;7.046;2023-04-03T02:38:35;1.00;99.90
5118;DHT22;2578;51.622;7.046;2023-04-03T02:41:02;1.00;99.90
5118;DHT22;2578;51.622;7.046;2023-04-03T02:43:28;1.00;99.90
5118;DHT22;2578;51.622;7.046;2023-04-03T02:45:53;1.10;99.90
5118;DHT22;2578;51.622;7.046;2023-04-03T02:48:19;1.00;99.90
5118;DHT22;2578;51.622;7.046;2023-04-03T02:50:45;1.00;99.90
5118;DHT22;2578;51.622;7.046;2023-04-03T02:53:10;1.00;99.90
5118;DHT22;2578;51.622;7.046;2023-04-03T02:55:36;1.00;99.90
5118;DHT22;2578;51.622;7.046;2023-04-03T02:58:02;1.10;99.90
5118;DHT22;2578;51.622;7.046;2023-04-03T03:00:28;1.00;99.90
5118;DHT22;2578;51.622;7.046;2023-04-03T03:02:54;1.00;99.90
5118;DHT22;2578;51.622;7.046;2023-04-03T03:05:20;1.10;99.90
5118;DHT22;2578;51.622;7.046;2023-04-03T03:07:45;1.20;99.90
5118;DHT22;2578;51.622;7.046;2023-04-03T03:10:11;1.20;99.90
5118;DHT22;2578;51.622;7.046;2023-04-03T03:12:36;1.20;99.90
5118;DHT22;2578;51.622;7.046;2023-04-03T03:15:02;1.10;99.90
5118;DHT22;2578;51.622;7.046;2023-04-03T03:17:28;1.10;99.90
5118;DHT22;2578;51.622;7.046;2023-04-03T03:19:53;1.10;99.90
5118;DHT22;2578;51.622;7.046;2023-04-03T03:22:19;1.00;99.90
5118;DHT22;2578;51.622;7.046;2023-04-03T03:24:45;1.00;99.90
5118;DHT22;2578;51.622;7.046;2023-04-03T03:27:11;1.00;99.90
5118;DHT22;2578;51.622;7.046;2023-04-03T03:29:37;0.90;99.90
5118;DHT22;2578;51.622;7.046;2023-04-03T03:32:03;0.90;99.90
5118;DHT22;2578;51.622;7.046;2023-04-03T03:34:29;0.90;99.90
5118;DHT22;2578;51.622;7.046;2023-04-03T03:36:54;0.80;99.90
5118;DHT22;2578;51.622;7.046;2023-04-03T03:39:20;0.80;99.90
5118;DHT22;2578;51.622;7.046;2023-04-03T03:41:46;0.70;99.90
5118;DHT22;2578;51.622;7.046;2023-04-03T03:44:11;0.70;99.90
5118;DHT22;2578;51.622;7.046;2023-04-03T03:46:37;0.60;99.90
5118;DHT22;2578;51.622;7.046;2023-04-03T03:49:03;0.50;99.90
5118;DHT22;2578;51.622;7.046;2023-04-03T03:51:28;0.50;99.90
5118;DHT22;2578;51.622;7.046;2023-04-03T03:53:54;0.50;99.90
5118;DHT22;2578;51.622;7.046;2023-04-03T03:56:20;0.40;99.90
5118;DHT22;2578;51.622;7.046;2023-04-03T03:58:46;0.60;99.90
5118;DHT22;2578;51.622;7.046;2023-04-03T04:01:11;0.50;99.90
5118;DHT22;2578;51.622;7.046;2023-04-03T04:03:37;0.50;99.90
5118;DHT22;2578;51.622;7.046;2023-04-03T04:06:03;1.10;99.90
5118;DHT22;2578;51.622;7.046;2023-04-03T04:08:28;0.40;99.90
5118;DHT22;2578;51.622;7.046;2023-04-03T04:10:54;0.40;99.90
5118;DHT22;2578;51.622;7.046;2023-04-03T04:13:20;0.50;99.90
5118;DHT22;2578;51.622;7.046;2023-04-03T04:15:46;0.30;99.90
5118;DHT22;2578;51.622;7.046;2023-04-03T04:18:12;0.20;99.90
5118;DHT22;2578;51.622;7.046;2023-04-03T04:20:37;0.20;99.90
5118;DHT22;2578;51.622;7.046;2023-04-03T04:23:03;0.20;99.90
5118;DHT22;2578;51.622;7.046;2023-04-03T04:25:28;1.30;99.90
5118;DHT22;2578;51.622;7.046;2023-04-03T04:27:54;0.20;99.90
5118;DHT22;2578;51.622;7.046;2023-04-03T04:30:20;0.20;99.90
5118;DHT22;2578;51.622;7.046;2023-04-03T04:32:45;0.20;99.90
5118;DHT22;2578;51.622;7.046;2023-04-03T04:35:12;0.10;99.90
5118;DHT22;2578;51.622;7.046;2023-04-03T04:37:37;0.10;99.90
5118;DHT22;2578;51.622;7.046;2023-04-03T04:40:03;0.10;99.90
5118;DHT22;2578;51.622;7.046;2023-04-03T04:42:29;0.10;99.90
5118;DHT22;2578;51.622;7.046;2023-04-03T04:44:55;0.10;99.90
5118;DHT22;2578;51.622;7.046;2023-04-03T04:47:20;0.10;99.90
5118;DHT22;2578;51.622;7.046;2023-04-03T04:49:46;0.00;99.90
5118;DHT22;2578;51.622;7.046;2023-04-03T04:52:13;0.00;99.90
5118;DHT22;2578;51.622;7.046;2023-04-03T04:54:38;0.10;99.90
5118;DHT22;2578;51.622;7.046;2023-04-03T04:57:04;0.10;99.90
5118;DHT22;2578;51.622;7.046;2023-04-03T04:59:30;0.00;99.90
5118;DHT22;2578;51.622;7.046;2023-04-03T05:01:55;0.00;99.90
5118;DHT22;2578;51.622;7.046;2023-04-03T05:04:21;-0.10;99.90
5118;DHT22;2578;51.622;7.046;2023-04-03T05:06:46;0.00;99.90
5118;DHT22;2578;51.622;7.046;2023-04-03T05:09:12;0.00;99.90
5118;DHT22;2578;51.622;7.046;2023-04-03T05:11:38;0.00;99.90
5118;DHT22;2578;51.622;7.046;2023-04-03T05:14:04;0.00;99.90
5118;DHT22;2578;51.622;7.046;2023-04-03T05:16:32;-0.10;99.90
5118;DHT22;2578;51.622;7.046;2023-04-03T05:18:57;0.20;99.90
5118;DHT22;2578;51.622;7.046;2023-04-03T05:21:23;0.00;99.90
5118;DHT22;2578;51.622;7.046;2023-04-03T05:23:51;-0.10;99.90
5118;DHT22;2578;51.622;7.046;2023-04-03T05:26:17;-0.10;99.90
5118;DHT22;2578;51.622;7.046;2023-04-03T05:28:43;0.00;99.90
5118;DHT22;2578;51.622;7.046;2023-04-03T05:31:08;0.30;99.90
5118;DHT22;2578;51.622;7.046;2023-04-03T05:33:34;0.50;99.90
5118;DHT22;2578;51.622;7.046;2023-04-03T05:36:06;0.10;99.90
5118;DHT22;2578;51.622;7.046;2023-04-03T05:38:32;0.10;99.90
5118;DHT22;2578;51.622;7.046;2023-04-03T05:40:58;0.10;99.90
5118;DHT22;2578;51.622;7.046;2023-04-03T05:43:23;0.30;99.90
5118;DHT22;2578;51.622;7.046;2023-04-03T05:45:51;0.40;99.90
5118;DHT22;2578;51.622;7.046;2023-04-03T05:48:16;0.40;99.90
5118;DHT22;2578;51.622;7.046;2023-04-03T05:50:42;1.00;99.90
5118;DHT22;2578;51.622;7.046;2023-04-03T05:53:18;0.50;99.90
5118;DHT22;2578;51.622;7.046;2023-04-03T05:55:44;0.70;99.90
5118;DHT22;2578;51.622;7.046;2023-04-03T05:58:10;0.90;99.90
5118;DHT22;2578;51.622;7.046;2023-04-03T06:00:35;1.00;99.90
5118;DHT22;2578;51.622;7.046;2023-04-03T06:03:01;1.10;99.90
5118;DHT22;2578;51.622;7.046;2023-04-03T06:05:27;1.20;99.90
5118;DHT22;2578;51.622;7.046;2023-04-03T06:07:53;1.30;99.90
5118;DHT22;2578;51.622;7.046;2023-04-03T06:10:19;1.40;99.90
5118;DHT22;2578;51.622;7.046;2023-04-03T06:12:45;1.50;99.90
5118;DHT22;2578;51.622;7.046;2023-04-03T06:15:11;1.60;99.90
5118;DHT22;2578;51.622;7.046;2023-04-03T06:17:37;1.80;99.90
5118;DHT22;2578;51.622;7.046;2023-04-03T06:20:04;1.90;99.90
5118;DHT22;2578;51.622;7.046;2023-04-03T06:22:29;2.00;99.90
5118;DHT22;2578;51.622;7.046;2023-04-03T06:24:56;2.10;99.90
5118;DHT22;2578;51.622;7.046;2023-04-03T06:27:22;2.10;99.90
5118;DHT22;2578;51.622;7.046;2023-04-03T06:29:48;2.10;99.90
5118;DHT22;2578;51.622;7.046;2023-04-03T06:32:15;2.20;99.90
5118;DHT22;2578;51.622;7.046;2023-04-03T06:34:41;2.40;99.90
5118;DHT22;2578;51.622;7.046;2023-04-03T06:37:13;2.40;99.90
5118;DHT22;2578;51.622;7.046;2023-04-03T06:39:40;2.40;99.90
5118;DHT22;2578;51.622;7.046;2023-04-03T06:42:05;2.60;99.90
5118;DHT22;2578;51.622;7.046;2023-04-03T06:44:31;2.70;99.90
5118;DHT22;2578;51.622;7.046;2023-04-03T06:46:59;2.70;99.90
5118;DHT22;2578;51.622;7.046;2023-04-03T06:49:24;3.20;99.90
5118;DHT22;2578;51.622;7.046;2023-04-03T06:51:50;3.00;99.90
5118;DHT22;2578;51.622;7.046;2023-04-03T06:54:17;3.00;99.90
5118;DHT22;2578;51.622;7.046;2023-04-03T06:56:42;3.10;99.90
5118;DHT22;2578;51.622;7.046;2023-04-03T06:59:10;3.30;99.90
5118;DHT22;2578;51.622;7.046;2023-04-03T07:01:38;3.40;99.90
5118;DHT22;2578;51.622;7.046;2023-04-03T07:04:03;3.30;99.90
5118;DHT22;2578;51.622;7.046;2023-04-03T07:06:29;3.30;99.90
5118;DHT22;2578;51.622;7.046;2023-04-03T07:08:56;3.40;99.90
5118;DHT22;2578;51.622;7.046;2023-04-03T07:11:22;3.50;99.90
5118;DHT22;2578;51.622;7.046;2023-04-03T07:13:48;3.60;99.90
5118;DHT22;2578;51.622;7.046;2023-04-03T07:16:13;3.60;99.90
5118;DHT22;2578;51.622;7.046;2023-04-03T07:18:39;3.90;99.90
5118;DHT22;2578;51.622;7.046;2023-04-03T07:21:05;4.10;99.90
5118;DHT22;2578;51.622;7.046;2023-04-03T07:23:31;4.20;99.90
5118;DHT22;2578;51.622;7.046;2023-04-03T07:25:57;4.30;99.90
5118;DHT22;2578;51.622;7.046;2023-04-03T07:28:23;4.90;99.90
5118;DHT22;2578;51.622;7.046;2023-04-03T07:30:51;4.20;99.90
5118;DHT22;2578;51.622;7.046;2023-04-03T07:33:18;4.10;99.90
5118;DHT22;2578;51.622;7.046;2023-04-03T07:35:45;4.40;99.90
5118;DHT22;2578;51.622;7.046;2023-04-03T07:38:11;4.70;99.90
5118;DHT22;2578;51.622;7.046;2023-04-03T07:40:37;4.70;1.00
5118;DHT22;2578;51.622;7.046;2023-04-03T07:43:04;4.60;1.00
5118;DHT22;2578;51.622;7.046;2023-04-03T07:45:31;4.60;1.00
5118;DHT22;2578;51.622;7.046;2023-04-03T07:47:57;4.60;1.00
5118;DHT22;2578;51.622;7.046;2023-04-03T07:50:22;4.70;1.00
5118;DHT22;2578;51.622;7.046;2023-04-03T07:52:48;4.90;1.00
5118;DHT22;2578;51.622;7.046;2023-04-03T07:55:16;5.30;1.00
5118;DHT22;2578;51.622;7.046;2023-04-03T07:57:41;5.30;1.00
5118;DHT22;2578;51.622;7.046;2023-04-03T08:00:08;5.30;1.00
5118;DHT22;2578;51.622;7.046;2023-04-03T08:02:34;5.40;1.00
5118;DHT22;2578;51.622;7.046;2023-04-03T08:05:00;6.00;1.00
5118;DHT22;2578;51.622;7.046;2023-04-03T08:07:25;6.10;1.00
5118;DHT22;2578;51.622;7.046;2023-04-03T08:09:52;6.50;1.00
5118;DHT22;2578;51.622;7.046;2023-04-03T08:12:17;6.60;1.00
5118;DHT22;2578;51.622;7.046;2023-04-03T08:14:43;6.60;1.00
5118;DHT22;2578;51.622;7.046;2023-04-03T08:17:09;6.50;1.00
5118;DHT22;2578;51.622;7.046;2023-04-03T08:19:38;6.80;1.00
5118;DHT22;2578;51.622;7.046;2023-04-03T08:22:04;6.60;1.00
5118;DHT22;2578;51.622;7.046;2023-04-03T08:24:31;7.10;1.00
5118;DHT22;2578;51.622;7.046;2023-04-03T08:26:57;7.10;1.00
5118;DHT22;2578;51.622;7.046;2023-04-03T08:29:23;7.20;1.00
5118;DHT22;2578;51.622;7.046;2023-04-03T08:31:50;7.50;1.00
5118;DHT22;2578;51.622;7.046;2023-04-03T08:34:16;7.90;1.00
5118;DHT22;2578;51.622;7.046;2023-04-03T08:36:42;7.40;1.00
5118;DHT22;2578;51.622;7.046;2023-04-03T08:39:07;8.70;1.00
5118;DHT22;2578;51.622;7.046;2023-04-03T08:41:38;8.00;1.00
5118;DHT22;2578;51.622;7.046;2023-04-03T08:49:40;8.00;1.00
5118;DHT22;2578;51.622;7.046;2023-04-03T08:52:15;7.80;1.00
5118;DHT22;2578;51.622;7.046;2023-04-03T08:54:54;7.70;1.00
5118;DHT22;2578;51.622;7.046;2023-04-03T08:57:41;7.90;1.00
5118;DHT22;2578;51.622;7.046;2023-04-03T09:00:19;8.10;1.00
5118;DHT22;2578;51.622;7.046;2023-04-03T09:02:53;8.50;1.00
5118;DHT22;2578;51.622;7.046;2023-04-03T09:05:35;8.50;1.00
5118;DHT22;2578;51.622;7.046;2023-04-03T09:10:39;8.50;1.00
5118;DHT22;2578;51.622;7.046;2023-04-03T09:14:21;8.70;1.00
5118;DHT22;2578;51.622;7.046;2023-04-03T09:19:11;8.00;1.00
5118;DHT22;2578;51.622;7.046;2023-04-03T09:21:39;8.00;1.00
5118;DHT22;2578;51.622;7.046;2023-04-03T09:24:10;8.10;1.00
5118;DHT22;2578;51.622;7.046;2023-04-03T09:26:44;8.20;1.00
5118;DHT22;2578;51.622;7.046;2023-04-03T09:29:18;8.40;1.00
5118;DHT22;2578;51.622;7.046;2023-04-03T09:31:49;8.40;1.00
5118;DHT22;2578;51.622;7.046;2023-04-03T09:34:24;8.30;1.00
5118;DHT22;2578;51.622;7.046;2023-04-03T09:36:54;8.10;1.00
5118;DHT22;2578;51.622;7.046;2023-04-03T09:39:23;8.60;1.00
5118;DHT22;2578;51.622;7.046;2023-04-03T09:42:16;8.80;1.00
5118;DHT22;2578;51.622;7.046;2023-04-03T09:45:02;8.90;1.00
5118;DHT22;2578;51.622;7.046;2023-04-03T09:47:33;8.70;1.00
5118;DHT22;2578;51.622;7.046;2023-04-03T09:52:39;9.20;1.00
5118;DHT22;2578;51.622;7.046;2023-04-03T09:55:17;9.50;1.00
5118;DHT22;2578;51.622;7.046;2023-04-03T09:57:46;9.60;1.00
5118;DHT22;2578;51.622;7.046;2023-04-03T10:02:56;10.20;1.00
5118;DHT22;2578;51.622;7.046;2023-04-03T10:10:33;9.20;1.00
5118;DHT22;2578;51.622;7.046;2023-04-03T10:13:11;9.20;1.00
5118;DHT22;2578;51.622;7.046;2023-04-03T10:15:51;9.40;1.00
5118;DHT22;2578;51.622;7.046;2023-04-03T10:18:41;9.30;1.00
5118;DHT22;2578;51.622;7.046;2023-04-03T10:29:49;10.20;1.00
5118;DHT22;2578;51.622;7.046;2023-04-03T10:35:44;9.70;1.00
5118;DHT22;2578;51.622;7.046;2023-04-03T10:37:51;9.60;1.00
5118;DHT22;2578;51.622;7.046;2023-04-03T10:41:04;9.70;1.00
5118;DHT22;2578;51.622;7.046;2023-04-03T10:43:44;9.80;1.00
5118;DHT22;2578;51.622;7.046;2023-04-03T10:46:23;9.80;1.00
5118;DHT22;2578;51.622;7.046;2023-04-03T10:49:38;10.00;1.00
5118;DHT22;2578;51.622;7.046;2023-04-03T10:52:20;10.30;1.00
5118;DHT22;2578;51.622;7.046;2023-04-03T10:57:22;10.10;1.00
5118;DHT22;2578;51.622;7.046;2023-04-03T10:59:55;10.30;1.00
5118;DHT22;2578;51.622;7.046;2023-04-03T11:02:34;10.40;1.00
5118;DHT22;2578;51.622;7.046;2023-04-03T11:05:48;10.60;1.00
5118;DHT22;2578;51.622;7.046;2023-04-03T11:07:55;10.60;1.00
5118;DHT22;2578;51.622;7.046;2023-04-03T11:13:26;10.60;1.00
5118;DHT22;2578;51.622;7.046;2023-04-03T11:15:53;10.70;1.00
5118;DHT22;2578;51.622;7.046;2023-04-03T11:18:46;10.70;1.00
5118;DHT22;2578;51.622;7.046;2023-04-03T11:23:43;11.00;1.00
5118;DHT22;2578;51.622;7.046;2023-04-03T11:26:15;10.80;1.00
5118;DHT22;2578;51.622;7.046;2023-04-03T11:28:42;10.50;1.00
5118;DHT22;2578;51.622;7.046;2023-04-03T11:31:26;10.40;1.00
5118;DHT22;2578;51.622;7.046;2023-04-03T11:34:39;10.30;1.00
5118;DHT22;2578;51.622;7.046;2023-04-03T11:37:40;10.10;1.00
5118;DHT22;2578;51.622;7.046;2023-04-03T11:42:43;11.20;1.00
5118;DHT22;2578;51.622;7.046;2023-04-03T11:55:46;11.20;1.00
5118;DHT22;2578;51.622;7.046;2023-04-03T11:58:18;11.40;1.00
5118;DHT22;2578;51.622;7.046;2023-04-03T12:13:42;11.50;1.00
5118;DHT22;2578;51.622;7.046;2023-04-03T12:16:30;11.20;1.00
5118;DHT22;2578;51.622;7.046;2023-04-03T12:19:02;11.60;1.00
5118;DHT22;2578;51.622;7.046;2023-04-03T12:27:05;11.90;1.00
5118;DHT22;2578;51.622;7.046;2023-04-03T12:29:41;12.20;1.00
5118;DHT22;2578;51.622;7.046;2023-04-03T12:46:43;11.70;1.00
5118;DHT22;2578;51.622;7.046;2023-04-03T12:49:33;11.50;1.00
5118;DHT22;2578;51.622;7.046;2023-04-03T12:52:04;11.40;1.00
5118;DHT22;2578;51.622;7.046;2023-04-03T12:54:38;11.60;1.00
5118;DHT22;2578;51.622;7.046;2023-04-03T12:57:16;11.60;1.00
5118;DHT22;2578;51.622;7.046;2023-04-03T12:59:42;11.80;1.00
5118;DHT22;2578;51.622;7.046;2023-04-03T13:02:22;11.70;1.00
5118;DHT22;2578;51.622;7.046;2023-04-03T13:04:49;11.60;1.00
5118;DHT22;2578;51.622;7.046;2023-04-03T13:07:21;11.70;1.00
5118;DHT22;2578;51.622;7.046;2023-04-03T13:10:00;11.70;1.00
5118;DHT22;2578;51.622;7.046;2023-04-03T13:12:26;11.90;1.00
5118;DHT22;2578;51.622;7.046;2023-04-03T13:14:57;11.70;1.00
5118;DHT22;2578;51.622;7.046;2023-04-03T13:17:24;11.80;1.00
5118;DHT22;2578;51.622;7.046;2023-04-03T13:19:50;11.50;1.00
5118;DHT22;2578;51.622;7.046;2023-04-03T13:22:27;11.50;1.00
5118;DHT22;2578;51.622;7.046;2023-04-03T13:24:55;11.90;1.00
5118;DHT22;2578;51.622;7.046;2023-04-03T13:27:23;11.80;1.00
5118;DHT22;2578;51.622;7.046;2023-04-03T13:29:51;11.70;1.00
5118;DHT22;2578;51.622;7.046;2023-04-03T13:32:21;11.60;1.00
5118;DHT22;2578;51.622;7.046;2023-04-03T13:34:48;11.40;1.00
5118;DHT22;2578;51.622;7.046;2023-04-03T13:37:21;11.70;1.00
5118;DHT22;2578;51.622;7.046;2023-04-03T13:39:58;11.80;1.00
5118;DHT22;2578;51.622;7.046;2023-04-03T13:42:27;11.80;1.00
5118;DHT22;2578;51.622;7.046;2023-04-03T13:47:41;11.60;1.00
5118;DHT22;2578;51.622;7.046;2023-04-03T13:50:23;11.60;1.00
5118;DHT22;2578;51.622;7.046;2023-04-03T13:53:11;11.70;1.00
5118;DHT22;2578;51.622;7.046;2023-04-03T13:58:23;11.70;1.00
5118;DHT22;2578;51.622;7.046;2023-04-03T14:01:14;12.10;1.00
5118;DHT22;2578;51.622;7.046;2023-04-03T14:03:45;11.90;1.00
5118;DHT22;2578;51.622;7.046;2023-04-03T14:06:14;11.90;1.00
5118;DHT22;2578;51.622;7.046;2023-04-03T14:08:43;12.20;1.00
5118;DHT22;2578;51.622;7.046;2023-04-03T14:11:17;11.80;1.00
5118;DHT22;2578;51.622;7.046;2023-04-03T14:13:44;11.50;1.00
5118;DHT22;2578;51.622;7.046;2023-04-03T14:16:20;11.20;1.00
5118;DHT22;2578;51.622;7.046;2023-04-03T14:18:47;11.50;1.00
5118;DHT22;2578;51.622;7.046;2023-04-03T14:21:15;11.20;1.00
5118;DHT22;2578;51.622;7.046;2023-04-03T14:23:41;11.30;1.00
5118;DHT22;2578;51.622;7.046;2023-04-03T14:26:20;10.90;1.00
5118;DHT22;2578;51.622;7.046;2023-04-03T14:28:47;10.90;1.00
5118;DHT22;2578;51.622;7.046;2023-04-03T14:31:13;11.00;1.00
5118;DHT22;2578;51.622;7.046;2023-04-03T14:33:40;11.30;1.00
5118;DHT22;2578;51.622;7.046;2023-04-03T14:36:13;11.20;1.00
5118;DHT22;2578;51.622;7.046;2023-04-03T14:38:39;11.50;1.00
5118;DHT22;2578;51.622;7.046;2023-04-03T14:41:05;11.60;1.00
5118;DHT22;2578;51.622;7.046;2023-04-03T14:43:30;11.70;1.00
5118;DHT22;2578;51.622;7.046;2023-04-03T14:45:56;11.60;1.00
5118;DHT22;2578;51.622;7.046;2023-04-03T14:48:25;11.50;1.00
5118;DHT22;2578;51.622;7.046;2023-04-03T14:50:52;11.40;1.00
5118;DHT22;2578;51.622;7.046;2023-04-03T14:53:19;11.10;1.00
5118;DHT22;2578;51.622;7.046;2023-04-03T14:55:48;10.80;1.00
5118;DHT22;2578;51.622;7.046;2023-04-03T14:58:16;10.90;1.00
5118;DHT22;2578;51.622;7.046;2023-04-03T15:00:42;11.10;1.00
5118;DHT22;2578;51.622;7.046;2023-04-03T15:03:16;10.90;1.00
5118;DHT22;2578;51.622;7.046;2023-04-03T15:05:43;10.70;1.00
5118;DHT22;2578;51.622;7.046;2023-04-03T15:08:25;10.60;1.00
5118;DHT22;2578;51.622;7.046;2023-04-03T15:10:52;10.40;1.00
5118;DHT22;2578;51.622;7.046;2023-04-03T15:13:22;10.80;1.00
5118;DHT22;2578;51.622;7.046;2023-04-03T15:15:48;10.60;1.00
5118;DHT22;2578;51.622;7.046;2023-04-03T15:18:23;10.50;1.00
5118;DHT22;2578;51.622;7.046;2023-04-03T15:20:49;10.40;1.00
5118;DHT22;2578;51.622;7.046;2023-04-03T15:23:16;10.50;1.00
5118;DHT22;2578;51.622;7.046;2023-04-03T15:25:46;10.50;1.00
5118;DHT22;2578;51.622;7.046;2023-04-03T15:28:30;11.60;1.00
5118;DHT22;2578;51.622;7.046;2023-04-03T15:30:56;10.40;1.00
5118;DHT22;2578;51.622;7.046;2023-04-03T15:33:22;10.30;1.00
5118;DHT22;2578;51.622;7.046;2023-04-03T15:35:48;10.10;1.00
5118;DHT22;2578;51.622;7.046;2023-04-03T15:38:14;10.00;1.00
5118;DHT22;2578;51.622;7.046;2023-04-03T15:40:39;10.10;1.00
5118;DHT22;2578;51.622;7.046;2023-04-03T15:43:06;11.10;1.00
5118;DHT22;2578;51.622;7.046;2023-04-03T15:45:33;10.00;1.00
5118;DHT22;2578;51.622;7.046;2023-04-03T15:48:01;10.10;1.00
5118;DHT22;2578;51.622;7.046;2023-04-03T15:50:27;10.10;1.00
5118;DHT22;2578;51.622;7.046;2023-04-03T15:52:53;10.20;1.00
5118;DHT22;2578;51.622;7.046;2023-04-03T15:55:25;10.20;1.00
5118;DHT22;2578;51.622;7.046;2023-04-03T15:57:52;10.20;1.00
5118;DHT22;2578;51.622;7.046;2023-04-03T16:00:19;10.00;1.00
5118;DHT22;2578;51.622;7.046;2023-04-03T16:02:46;9.90;1.00
5118;DHT22;2578;51.622;7.046;2023-04-03T16:05:13;9.90;1.00
5118;DHT22;2578;51.622;7.046;2023-04-03T16:07:39;10.10;1.00
5118;DHT22;2578;51.622;7.046;2023-04-03T16:10:07;9.80;1.00
5118;DHT22;2578;51.622;7.046;2023-04-03T16:12:33;9.70;1.00
5118;DHT22;2578;51.622;7.046;2023-04-03T16:14:58;9.80;1.00
5118;DHT22;2578;51.622;7.046;2023-04-03T16:17:26;9.80;1.00
5118;DHT22;2578;51.622;7.046;2023-04-03T16:19:51;9.70;1.00
5118;DHT22;2578;51.622;7.046;2023-04-03T16:22:17;9.60;1.00
5118;DHT22;2578;51.622;7.046;2023-04-03T16:24:43;9.30;1.00
5118;DHT22;2578;51.622;7.046;2023-04-03T16:27:09;9.20;1.00
5118;DHT22;2578;51.622;7.046;2023-04-03T16:29:34;9.20;1.00
5118;DHT22;2578;51.622;7.046;2023-04-03T16:32:01;9.20;1.00
5118;DHT22;2578;51.622;7.046;2023-04-03T16:34:27;8.80;1.00
5118;DHT22;2578;51.622;7.046;2023-04-03T16:36:55;8.80;1.00
5118;DHT22;2578;51.622;7.046;2023-04-03T16:39:21;8.80;1.00
5118;DHT22;2578;51.622;7.046;2023-04-03T16:41:47;8.70;1.00
5118;DHT22;2578;51.622;7.046;2023-04-03T16:44:12;8.70;1.00
5118;DHT22;2578;51.622;7.046;2023-04-03T16:46:39;8.70;1.00
5118;DHT22;2578;51.622;7.046;2023-04-03T16:49:05;8.70;1.00
5118;DHT22;2578;51.622;7.046;2023-04-03T16:51:30;8.50;1.00
5118;DHT22;2578;51.622;7.046;2023-04-03T16:53:57;8.40;1.00
5118;DHT22;2578;51.622;7.046;2023-04-03T16:56:23;8.30;1.00
5118;DHT22;2578;51.622;7.046;2023-04-03T16:58:48;8.30;1.00
5118;DHT22;2578;51.622;7.046;2023-04-03T17:01:17;8.20;1.00
5118;DHT22;2578;51.622;7.046;2023-04-03T17:03:43;8.60;1.00
5118;DHT22;2578;51.622;7.046;2023-04-03T17:06:12;8.10;1.00
5118;DHT22;2578;51.622;7.046;2023-04-03T17:08:42;8.10;1.00
5118;DHT22;2578;51.622;7.046;2023-04-03T17:11:08;8.10;1.00
5118;DHT22;2578;51.622;7.046;2023-04-03T17:13:34;7.90;1.00
5118;DHT22;2578;51.622;7.046;2023-04-03T17:16:02;7.90;1.00
5118;DHT22;2578;51.622;7.046;2023-04-03T17:18:30;7.80;1.00
5118;DHT22;2578;51.622;7.046;2023-04-03T17:20:57;7.80;1.00
5118;DHT22;2578;51.622;7.046;2023-04-03T17:23:24;7.70;1.00
5118;DHT22;2578;51.622;7.046;2023-04-03T17:25:50;7.60;1.00
5118;DHT22;2578;51.622;7.046;2023-04-03T17:28:16;7.50;1.00
5118;DHT22;2578;51.622;7.046;2023-04-03T17:30:42;8.70;1.00
5118;DHT22;2578;51.622;7.046;2023-04-03T17:33:08;7.30;1.00
5118;DHT22;2578;51.622;7.046;2023-04-03T17:35:34;7.20;1.00
5118;DHT22;2578;51.622;7.046;2023-04-03T17:38:00;7.10;1.00
5118;DHT22;2578;51.622;7.046;2023-04-03T17:40:25;7.20;1.00
5118;DHT22;2578;51.622;7.046;2023-04-03T17:42:51;7.00;1.00
5118;DHT22;2578;51.622;7.046;2023-04-03T17:45:17;6.90;1.00
5118;DHT22;2578;51.622;7.046;2023-04-03T17:47:42;6.80;1.00
5118;DHT22;2578;51.622;7.046;2023-04-03T17:50:11;6.70;1.00
5118;DHT22;2578;51.622;7.046;2023-04-03T17:52:37;6.70;1.00
5118;DHT22;2578;51.622;7.046;2023-04-03T17:55:03;6.60;1.00
5118;DHT22;2578;51.622;7.046;2023-04-03T17:57:29;6.50;1.00
5118;DHT22;2578;51.622;7.046;2023-04-03T17:59:56;6.50;1.00
5118;DHT22;2578;51.622;7.046;2023-04-03T18:02:22;6.40;1.00
5118;DHT22;2578;51.622;7.046;2023-04-03T18:04:51;6.20;1.00
5118;DHT22;2578;51.622;7.046;2023-04-03T18:07:17;6.10;1.00
5118;DHT22;2578;51.622;7.046;2023-04-03T18:09:45;5.90;1.00
5118;DHT22;2578;51.622;7.046;2023-04-03T18:12:12;5.90;1.00
5118;DHT22;2578;51.622;7.046;2023-04-03T18:14:39;5.70;1.00
5118;DHT22;2578;51.622;7.046;2023-04-03T18:17:06;5.70;1.00